Terminal Aerodrome Forecast
Issued by NWS Corpus Christi, TX

Current Version | Previous Version | Text Only | Print | Product List | Glossary Off
Versions: 1 2 3 4 5 6 7 8 9 10 11 12 13 14 15 16 17 18 19 20 21 22 23 24

352
FTUS44 KCRP 221739
TAFCRP
TAF
KCRP 221739Z 2218/2318 07005KT P6SM VCSH SCT030 BKN050
      TEMPO 2219/2221 5SM -TSRA BKN025CB OVC050
     FM222100 09012KT P6SM SCT035 BKN100
     FM230300 06007KT P6SM BKN025 OVC050 PROB30 2308/2312 5SM -TSRA
      OVC020CB
     FM231200 08006KT P6SM VCSH BKN025 OVC100 PROB30 2316/2318 5SM
      -TSRA OVC020CB=

USA.gov is the U.S. government's official web portal to all federal, state and local government web resources and services.